createdAt,value
2022-10-19T00:04:13.994Z,0
2022-10-19T00:09:13.410Z,0
2022-10-19T00:14:13.282Z,0
2022-10-19T00:19:12.838Z,0
2022-10-19T00:24:12.457Z,0
2022-10-19T00:29:13.486Z,0
2022-10-19T00:34:09.817Z,0
2022-10-19T00:39:09.516Z,0
2022-10-19T00:44:09.726Z,0
2022-10-19T00:49:13.321Z,0
2022-10-19T00:54:07.469Z,0
2022-10-19T00:58:53.425Z,0
2022-10-19T01:03:53.493Z,0
2022-10-19T01:08:54.003Z,0
2022-10-19T01:13:53.257Z,0
2022-10-19T01:18:51.725Z,0
2022-10-19T01:23:51.772Z,0
2022-10-19T01:28:51.935Z,0
2022-10-19T01:33:50.425Z,0
2022-10-19T01:38:48.798Z,0
2022-10-19T01:43:49.133Z,0
2022-10-19T01:48:48.823Z,0
2022-10-19T01:53:48.083Z,0
2022-10-19T01:58:47.189Z,0
2022-10-19T02:03:47.144Z,0
2022-10-19T02:08:46.150Z,0
2022-10-19T02:13:46.995Z,0
2022-10-19T02:18:44.287Z,0
2022-10-19T02:23:44.343Z,0
2022-10-19T02:28:44.385Z,0
2022-10-19T02:33:43.651Z,0
2022-10-19T02:38:42.017Z,0
2022-10-19T02:43:41.959Z,0
2022-10-19T02:48:42.510Z,0
2022-10-19T02:53:40.946Z,0
2022-10-19T02:58:40.597Z,0
2022-10-19T03:03:39.439Z,0
2022-10-19T03:08:39.089Z,0
2022-10-19T03:13:38.839Z,0
2022-10-19T03:18:37.210Z,0
2022-10-19T03:23:36.736Z,0
2022-10-19T03:28:36.971Z,0
2022-10-19T03:33:36.026Z,0
2022-10-19T03:38:35.057Z,0
2022-10-19T03:43:34.845Z,0
2022-10-19T03:48:34.870Z,0
2022-10-19T03:53:35.894Z,0
2022-10-19T03:58:39.653Z,0
2022-10-19T04:03:32.875Z,0
2022-10-19T04:08:32.635Z,0
2022-10-19T04:13:31.320Z,0
2022-10-19T04:18:30.774Z,0
2022-10-19T04:23:29.678Z,0
2022-10-19T04:28:30.465Z,0
2022-10-19T04:33:29.287Z,0
2022-10-19T04:38:29.855Z,0
2022-10-19T04:43:26.563Z,0
2022-10-19T04:48:27.075Z,0
2022-10-19T04:53:27.569Z,0
2022-10-19T04:58:26.203Z,0
2022-10-19T04:59:46.210Z,0
2022-10-19T05:04:47.749Z,0
2022-10-19T05:09:45.191Z,0
2022-10-19T05:14:45.833Z,0
2022-10-19T05:19:43.631Z,0
2022-10-19T05:24:43.515Z,0
2022-10-19T05:29:43.664Z,0
2022-10-19T05:34:42.681Z,0
2022-10-19T05:39:41.057Z,0
2022-10-19T05:44:40.706Z,0
2022-10-19T05:49:40.340Z,0
2022-10-19T05:54:40.110Z,0
2022-10-19T05:58:51.502Z,0
2022-10-19T06:03:51.197Z,0
2022-10-19T06:08:50.495Z,0
2022-10-19T06:13:50.253Z,0
2022-10-19T06:18:47.850Z,0
2022-10-19T06:23:47.882Z,0
2022-10-19T06:28:47.999Z,0.01
2022-10-19T06:33:52.002Z,0.01
2022-10-19T06:38:46.528Z,0.01
2022-10-19T06:43:45.678Z,0.01
2022-10-19T06:48:45.406Z,0.01
2022-10-19T06:53:44.799Z,0.02
2022-10-19T06:58:45.490Z,0.02
2022-10-19T07:03:42.617Z,0.02
2022-10-19T07:08:42.726Z,0.03
2022-10-19T07:13:41.975Z,0.03
2022-10-19T07:18:41.814Z,0.04
2022-10-19T07:23:39.662Z,0.04
2022-10-19T07:28:39.487Z,0.04
2022-10-19T07:33:39.276Z,0.06
2022-10-19T07:38:38.873Z,0.06
2022-10-19T07:43:38.692Z,0.06
2022-10-19T07:48:37.756Z,0.06
2022-10-19T07:53:37.533Z,0.07
2022-10-19T07:58:37.975Z,0.07
2022-10-19T07:59:59.395Z,0.07
2022-10-19T08:05:13.750Z,0.08
2022-10-19T08:09:59.105Z,0.08
2022-10-19T08:14:58.263Z,0.1
2022-10-19T08:19:57.349Z,0.11
2022-10-19T08:24:56.857Z,0.12
2022-10-19T08:29:56.589Z,0.14
2022-10-19T08:34:56.491Z,0.11
2022-10-19T08:39:56.817Z,0.12
2022-10-19T08:44:54.034Z,0.13
2022-10-19T08:49:54.120Z,0.12
2022-10-19T08:54:53.769Z,0.13
2022-10-19T08:58:57.868Z,0.12
2022-10-19T09:03:59.635Z,0.12
2022-10-19T09:08:56.278Z,0.13
2022-10-19T09:14:08.021Z,0.13
2022-10-19T09:23:54.874Z,0.14
2022-10-19T09:28:53.962Z,0.17
2022-10-19T09:33:54.267Z,0.15
2022-10-19T09:38:53.505Z,0.18
2022-10-19T09:43:51.961Z,0.16
2022-10-19T09:48:51.146Z,0.15
2022-10-19T09:53:52.144Z,0.16
2022-10-19T09:58:51.013Z,0.19
2022-10-19T10:03:57.803Z,0.2
2022-10-19T10:08:49.790Z,0.24
2022-10-19T10:13:49.216Z,0.26
2022-10-19T10:18:48.355Z,0.27
2022-10-19T10:23:49.353Z,0.28
2022-10-19T10:28:46.574Z,0.32
2022-10-19T10:33:48.865Z,0.33
2022-10-19T10:38:46.023Z,0.39
2022-10-19T10:43:46.914Z,0.45
2022-10-19T10:48:45.314Z,0.39
2022-10-19T10:53:44.768Z,0.36
2022-10-19T10:58:44.327Z,0.38
2022-10-19T11:03:44.573Z,0.32
2022-10-19T11:08:43.683Z,0.35
2022-10-19T11:13:44.067Z,0.32
2022-10-19T11:18:44.610Z,0.49
2022-10-19T11:23:43.897Z,0.39
2022-10-19T11:28:42.041Z,0.37
2022-10-19T11:38:41.330Z,0.2
2022-10-19T11:43:40.505Z,0.18
2022-10-19T11:48:45.799Z,0.15
2022-10-19T11:53:38.786Z,0.21
2022-10-19T11:58:38.280Z,0.21
2022-10-19T12:00:40.992Z,0.21
2022-10-19T12:05:01.056Z,0.21
2022-10-19T12:09:57.645Z,0.15
2022-10-19T12:14:57.488Z,0.14
2022-10-19T12:20:20.670Z,0.16
2022-10-19T12:24:56.223Z,0.16
2022-10-19T12:29:54.588Z,0.17
2022-10-19T12:34:54.570Z,0.16
2022-10-19T12:39:54.100Z,0.17
2022-10-19T12:45:00.615Z,0.16
2022-10-19T12:49:51.056Z,0.16
2022-10-19T12:54:50.759Z,0.18
2022-10-19T12:59:14.807Z,0.17
2022-10-19T13:04:14.408Z,0.17
2022-10-19T13:09:13.366Z,0.19
2022-10-19T13:14:12.245Z,0.2
2022-10-19T13:19:12.984Z,0.22
2022-10-19T13:24:12.032Z,0.31
2022-10-19T13:29:17.026Z,0.27
2022-10-19T13:34:10.424Z,0.27
2022-10-19T13:39:10.958Z,0.24
2022-10-19T13:44:10.414Z,0.23
2022-10-19T13:49:10.195Z,0.23
2022-10-19T13:54:10.205Z,0.23
2022-10-19T13:58:55.601Z,0.21
2022-10-19T14:03:56.565Z,0.2
2022-10-19T14:08:54.493Z,0.18
2022-10-19T14:13:53.672Z,0.16
2022-10-19T14:18:52.219Z,0.14
2022-10-19T14:23:51.871Z,0.12
2022-10-19T14:28:49.767Z,0.14
2022-10-19T14:33:50.417Z,0.11
2022-10-19T14:38:49.422Z,0.12
2022-10-19T14:43:49.374Z,0.1
2022-10-19T14:48:46.570Z,0.09
2022-10-19T14:53:46.266Z,0.07
2022-10-19T14:58:45.160Z,0.06
2022-10-19T15:03:46.473Z,0.06
2022-10-19T15:08:43.511Z,0.05
2022-10-19T15:13:41.775Z,0.05
2022-10-19T15:18:52.867Z,0.04
2022-10-19T15:23:40.580Z,0.04
2022-10-19T15:28:44.148Z,0.04
2022-10-19T15:33:39.064Z,0.03
2022-10-19T15:38:39.085Z,0.03
2022-10-19T15:43:38.357Z,0.02
2022-10-19T15:48:39.417Z,0.02
2022-10-19T15:53:44.405Z,0.01
2022-10-19T15:58:36.184Z,0.01
2022-10-19T16:03:35.738Z,0.01
2022-10-19T16:08:35.712Z,0.01
2022-10-19T16:13:35.154Z,0
2022-10-19T16:18:34.128Z,0
2022-10-19T16:23:41.831Z,0
2022-10-19T16:28:34.695Z,0
2022-10-19T16:33:32.160Z,0
2022-10-19T16:38:31.691Z,0
2022-10-19T16:43:29.962Z,0
2022-10-19T16:48:30.758Z,0
2022-10-19T16:53:28.050Z,0
2022-10-19T16:58:28.730Z,0
2022-10-19T16:59:49.326Z,0
2022-10-19T17:04:48.167Z,0
2022-10-19T17:09:55.305Z,0
2022-10-19T17:14:46.873Z,0
2022-10-19T17:19:46.532Z,0
2022-10-19T17:24:45.959Z,0
2022-10-19T17:29:46.406Z,0
2022-10-19T17:34:43.653Z,0
2022-10-19T17:39:43.527Z,0
2022-10-19T17:44:43.232Z,0
2022-10-19T17:49:42.629Z,0
2022-10-19T17:55:14.716Z,0
2022-10-19T17:59:13.017Z,0
2022-10-19T18:04:12.439Z,0
2022-10-19T18:09:13.392Z,0
2022-10-19T18:14:10.047Z,0
2022-10-19T18:19:10.029Z,0
2022-10-19T18:24:16.497Z,0
2022-10-19T18:29:08.358Z,0
2022-10-19T18:34:06.526Z,0
2022-10-19T18:39:06.569Z,0
2022-10-19T18:44:06.449Z,0
2022-10-19T18:49:05.707Z,0
2022-10-19T18:54:04.958Z,0
2022-10-19T18:58:51.619Z,0
2022-10-19T19:03:51.956Z,0
2022-10-19T19:08:50.949Z,0
2022-10-19T19:13:52.060Z,0
2022-10-19T19:18:48.579Z,0
2022-10-19T19:23:48.537Z,0
2022-10-19T19:28:53.718Z,0
2022-10-19T19:33:46.879Z,0
2022-10-19T19:38:46.583Z,0
2022-10-19T19:43:46.666Z,0
2022-10-19T19:48:45.625Z,0
2022-10-19T19:53:46.116Z,0
2022-10-19T19:58:43.261Z,0
2022-10-19T20:00:04.602Z,0
2022-10-19T20:05:04.349Z,0
2022-10-19T20:10:04.252Z,0
2022-10-19T20:15:02.787Z,0
2022-10-19T20:20:02.464Z,0
2022-10-19T20:25:01.678Z,0
2022-10-19T20:30:02.792Z,0
2022-10-19T20:34:59.273Z,0
2022-10-19T20:39:59.406Z,0
2022-10-19T20:44:58.419Z,0
2022-10-19T20:49:58.136Z,0
2022-10-19T20:54:55.771Z,0
2022-10-19T20:59:15.903Z,0
2022-10-19T21:04:15.495Z,0
2022-10-19T21:09:16.746Z,0
2022-10-19T21:14:13.623Z,0
2022-10-19T21:19:13.373Z,0
2022-10-19T21:24:13.282Z,0
2022-10-19T21:29:12.836Z,0
2022-10-19T21:34:10.711Z,0
2022-10-19T21:39:10.555Z,0
2022-10-19T21:44:10.102Z,0
2022-10-19T21:49:09.839Z,0
2022-10-19T21:58:54.818Z,0
2022-10-19T22:04:05.696Z,0
2022-10-19T22:08:54.292Z,0
2022-10-19T22:13:54.678Z,0
2022-10-19T22:18:52.212Z,0
2022-10-19T22:23:52.027Z,0
2022-10-19T22:28:51.066Z,0
2022-10-19T22:33:50.715Z,0
2022-10-19T22:38:50.332Z,0
2022-10-19T22:43:50.456Z,0
2022-10-19T22:48:49.651Z,0
2022-10-19T22:53:49.965Z,0
2022-10-19T22:58:47.205Z,0
2022-10-19T23:03:47.616Z,0
2022-10-19T23:08:47.976Z,0
2022-10-19T23:13:47.037Z,0
2022-10-19T23:18:45.161Z,0
2022-10-19T23:23:44.521Z,0
2022-10-19T23:28:44.897Z,0
2022-10-19T23:33:44.066Z,0
2022-10-19T23:38:43.264Z,0
2022-10-19T23:43:43.029Z,0
2022-10-19T23:48:42.493Z,0
2022-10-19T23:58:43.215Z,0
